Terminal Aerodrome Forecast
Issued by NWS

Home | Current Version | Previous Version | Text Only | Print | Product List | Glossary On
Versions: 1 2 3 4 5 6 7 8 9 10 11 12 13 14 15 16 17 18 19
000
FTUS44 KLZK 291123
TAFBPK
TAF
KBPK 291123Z 2912/3012 14008G16KT P6SM VCSH OVC015
      TEMPO 2914/2918 5SM -TSRA BR OVC008CB
     FM291800 15010G18KT P6SM SCT035 BKN120
     FM292200 16012G20KT P6SM VCTS SCT025 BKN050CB OVC120
      TEMPO 2922/3002 5SM -TSRA BR BKN025CB
     FM300200 16012G20KT 5SM -TSRA BR BKN025CB OVC050 PROB30
      3002/3008 1SM TSRA BR BKN008 OVC015CB
     FM300800 18008G15KT 5SM BR SCT020 OVC050=

USA.gov is the U.S. government's official web portal to all federal, state and local government web resources and services.